sensor_id;sensor_type;location;lat;lon;timestamp;P1;durP1;ratioP1;P2;durP2;ratioP2
25213;SDS011;13160;51.834;4.706;2023-06-22T00:00:41;14.23;;;10.25;;
25213;SDS011;13160;51.834;4.706;2023-06-22T00:03:10;16.30;;;10.70;;
25213;SDS011;13160;51.834;4.706;2023-06-22T00:05:39;15.93;;;11.23;;
25213;SDS011;13160;51.834;4.706;2023-06-22T00:08:07;14.38;;;11.15;;
25213;SDS011;13160;51.834;4.706;2023-06-22T00:10:36;19.52;;;11.63;;
25213;SDS011;13160;51.834;4.706;2023-06-22T00:13:04;16.25;;;11.70;;
25213;SDS011;13160;51.834;4.706;2023-06-22T00:15:36;15.20;;;11.63;;
25213;SDS011;13160;51.834;4.706;2023-06-22T00:18:06;20.98;;;13.00;;
25213;SDS011;13160;51.834;4.706;2023-06-22T00:20:35;22.25;;;13.38;;
25213;SDS011;13160;51.834;4.706;2023-06-22T00:23:04;19.50;;;12.90;;
25213;SDS011;13160;51.834;4.706;2023-06-22T00:25:35;20.40;;;13.43;;
25213;SDS011;13160;51.834;4.706;2023-06-22T00:28:04;17.75;;;13.57;;
25213;SDS011;13160;51.834;4.706;2023-06-22T00:30:32;19.02;;;13.52;;
25213;SDS011;13160;51.834;4.706;2023-06-22T00:33:02;20.13;;;14.50;;
25213;SDS011;13160;51.834;4.706;2023-06-22T00:35:33;19.42;;;14.60;;
25213;SDS011;13160;51.834;4.706;2023-06-22T00:38:02;20.15;;;14.93;;
25213;SDS011;13160;51.834;4.706;2023-06-22T00:40:31;19.60;;;14.40;;
25213;SDS011;13160;51.834;4.706;2023-06-22T00:43:01;22.15;;;15.63;;
25213;SDS011;13160;51.834;4.706;2023-06-22T00:45:29;19.77;;;14.95;;
25213;SDS011;13160;51.834;4.706;2023-06-22T00:47:58;23.23;;;16.20;;
25213;SDS011;13160;51.834;4.706;2023-06-22T00:50:29;19.83;;;14.93;;
25213;SDS011;13160;51.834;4.706;2023-06-22T00:53:01;22.38;;;15.90;;
25213;SDS011;13160;51.834;4.706;2023-06-22T00:55:35;27.27;;;16.92;;
25213;SDS011;13160;51.834;4.706;2023-06-22T00:58:05;23.40;;;16.75;;
25213;SDS011;13160;51.834;4.706;2023-06-22T01:00:37;21.95;;;15.77;;
25213;SDS011;13160;51.834;4.706;2023-06-22T01:03:06;23.27;;;15.35;;
25213;SDS011;13160;51.834;4.706;2023-06-22T01:05:38;22.17;;;16.15;;
25213;SDS011;13160;51.834;4.706;2023-06-22T01:08:12;22.05;;;17.20;;
25213;SDS011;13160;51.834;4.706;2023-06-22T01:10:55;21.70;;;16.05;;
25213;SDS011;13160;51.834;4.706;2023-06-22T01:13:32;25.15;;;17.80;;
25213;SDS011;13160;51.834;4.706;2023-06-22T01:16:10;25.08;;;17.17;;
25213;SDS011;13160;51.834;4.706;2023-06-22T01:18:42;22.65;;;17.70;;
25213;SDS011;13160;51.834;4.706;2023-06-22T01:21:14;20.80;;;16.38;;
25213;SDS011;13160;51.834;4.706;2023-06-22T01:23:50;26.20;;;18.20;;
25213;SDS011;13160;51.834;4.706;2023-06-22T01:26:36;24.23;;;17.63;;
25213;SDS011;13160;51.834;4.706;2023-06-22T01:29:11;24.60;;;17.85;;
25213;SDS011;13160;51.834;4.706;2023-06-22T01:31:42;25.63;;;18.05;;
25213;SDS011;13160;51.834;4.706;2023-06-22T01:34:12;25.55;;;18.55;;
25213;SDS011;13160;51.834;4.706;2023-06-22T01:36:41;27.25;;;17.98;;
25213;SDS011;13160;51.834;4.706;2023-06-22T01:39:11;26.25;;;17.77;;
25213;SDS011;13160;51.834;4.706;2023-06-22T01:41:40;25.52;;;16.65;;
25213;SDS011;13160;51.834;4.706;2023-06-22T01:44:11;25.85;;;18.75;;
25213;SDS011;13160;51.834;4.706;2023-06-22T01:46:40;29.13;;;18.75;;
25213;SDS011;13160;51.834;4.706;2023-06-22T01:49:09;27.80;;;17.77;;
25213;SDS011;13160;51.834;4.706;2023-06-22T01:51:38;25.95;;;18.05;;
25213;SDS011;13160;51.834;4.706;2023-06-22T01:54:07;24.27;;;18.33;;
25213;SDS011;13160;51.834;4.706;2023-06-22T01:56:35;27.05;;;17.67;;
25213;SDS011;13160;51.834;4.706;2023-06-22T01:59:05;26.65;;;18.85;;
25213;SDS011;13160;51.834;4.706;2023-06-22T02:01:42;26.83;;;19.30;;
25213;SDS011;13160;51.834;4.706;2023-06-22T02:04:18;31.73;;;19.58;;
25213;SDS011;13160;51.834;4.706;2023-06-22T02:06:51;23.73;;;17.27;;
25213;SDS011;13160;51.834;4.706;2023-06-22T02:09:26;28.23;;;19.15;;
25213;SDS011;13160;51.834;4.706;2023-06-22T02:11:58;26.38;;;18.45;;
25213;SDS011;13160;51.834;4.706;2023-06-22T02:14:31;25.40;;;18.13;;
25213;SDS011;13160;51.834;4.706;2023-06-22T02:17:00;28.73;;;21.10;;
25213;SDS011;13160;51.834;4.706;2023-06-22T02:19:35;27.67;;;18.80;;
25213;SDS011;13160;51.834;4.706;2023-06-22T02:22:04;29.15;;;20.60;;
25213;SDS011;13160;51.834;4.706;2023-06-22T02:24:33;26.98;;;18.42;;
25213;SDS011;13160;51.834;4.706;2023-06-22T02:27:02;30.65;;;21.35;;
25213;SDS011;13160;51.834;4.706;2023-06-22T02:29:34;27.98;;;21.20;;
25213;SDS011;13160;51.834;4.706;2023-06-22T02:32:03;27.13;;;19.65;;
25213;SDS011;13160;51.834;4.706;2023-06-22T02:34:32;28.70;;;21.58;;
25213;SDS011;13160;51.834;4.706;2023-06-22T02:37:00;31.23;;;21.52;;
25213;SDS011;13160;51.834;4.706;2023-06-22T02:39:29;29.45;;;22.25;;
25213;SDS011;13160;51.834;4.706;2023-06-22T02:41:57;31.83;;;22.20;;
25213;SDS011;13160;51.834;4.706;2023-06-22T02:44:26;29.38;;;22.05;;
25213;SDS011;13160;51.834;4.706;2023-06-22T02:46:55;30.90;;;22.05;;
25213;SDS011;13160;51.834;4.706;2023-06-22T02:49:23;31.08;;;22.52;;
25213;SDS011;13160;51.834;4.706;2023-06-22T02:51:52;30.48;;;21.35;;
25213;SDS011;13160;51.834;4.706;2023-06-22T02:54:21;30.65;;;21.80;;
25213;SDS011;13160;51.834;4.706;2023-06-22T02:56:50;35.03;;;22.27;;
25213;SDS011;13160;51.834;4.706;2023-06-22T02:59:18;31.70;;;22.85;;
25213;SDS011;13160;51.834;4.706;2023-06-22T03:01:50;34.33;;;21.88;;
25213;SDS011;13160;51.834;4.706;2023-06-22T03:04:20;29.75;;;22.85;;
25213;SDS011;13160;51.834;4.706;2023-06-22T03:06:48;33.60;;;22.52;;
25213;SDS011;13160;51.834;4.706;2023-06-22T03:09:17;36.67;;;23.33;;
25213;SDS011;13160;51.834;4.706;2023-06-22T03:11:46;33.25;;;24.15;;
25213;SDS011;13160;51.834;4.706;2023-06-22T03:14:14;31.75;;;23.30;;
25213;SDS011;13160;51.834;4.706;2023-06-22T03:16:42;34.08;;;23.10;;
25213;SDS011;13160;51.834;4.706;2023-06-22T03:19:10;35.03;;;22.95;;
25213;SDS011;13160;51.834;4.706;2023-06-22T03:21:40;34.97;;;24.75;;
25213;SDS011;13160;51.834;4.706;2023-06-22T03:24:09;32.50;;;23.52;;
25213;SDS011;13160;51.834;4.706;2023-06-22T03:26:37;34.28;;;23.98;;
25213;SDS011;13160;51.834;4.706;2023-06-22T03:29:05;35.60;;;24.08;;
25213;SDS011;13160;51.834;4.706;2023-06-22T03:31:34;33.10;;;22.30;;
25213;SDS011;13160;51.834;4.706;2023-06-22T03:34:02;34.97;;;24.33;;
25213;SDS011;13160;51.834;4.706;2023-06-22T03:36:31;30.13;;;22.45;;
25213;SDS011;13160;51.834;4.706;2023-06-22T03:39:00;34.95;;;24.50;;
25213;SDS011;13160;51.834;4.706;2023-06-22T03:41:29;33.90;;;23.52;;
25213;SDS011;13160;51.834;4.706;2023-06-22T03:43:58;30.88;;;21.50;;
25213;SDS011;13160;51.834;4.706;2023-06-22T03:46:26;35.25;;;23.10;;
25213;SDS011;13160;51.834;4.706;2023-06-22T03:48:54;34.03;;;22.63;;
25213;SDS011;13160;51.834;4.706;2023-06-22T03:51:23;35.83;;;24.15;;
25213;SDS011;13160;51.834;4.706;2023-06-22T03:53:51;30.30;;;20.35;;
25213;SDS011;13160;51.834;4.706;2023-06-22T03:56:21;33.08;;;22.73;;
25213;SDS011;13160;51.834;4.706;2023-06-22T03:58:49;31.73;;;21.85;;
25213;SDS011;13160;51.834;4.706;2023-06-22T04:01:18;35.28;;;24.05;;
25213;SDS011;13160;51.834;4.706;2023-06-22T04:03:46;36.22;;;22.13;;
25213;SDS011;13160;51.834;4.706;2023-06-22T04:06:16;36.90;;;23.33;;
25213;SDS011;13160;51.834;4.706;2023-06-22T04:08:44;33.05;;;24.25;;
25213;SDS011;13160;51.834;4.706;2023-06-22T04:11:17;35.85;;;23.45;;
25213;SDS011;13160;51.834;4.706;2023-06-22T04:13:47;37.17;;;24.77;;
25213;SDS011;13160;51.834;4.706;2023-06-22T04:16:17;35.03;;;25.23;;
25213;SDS011;13160;51.834;4.706;2023-06-22T04:18:46;34.88;;;24.65;;
25213;SDS011;13160;51.834;4.706;2023-06-22T04:21:14;37.97;;;25.48;;
25213;SDS011;13160;51.834;4.706;2023-06-22T04:23:42;31.52;;;23.48;;
25213;SDS011;13160;51.834;4.706;2023-06-22T04:26:12;40.95;;;26.15;;
25213;SDS011;13160;51.834;4.706;2023-06-22T04:28:41;35.47;;;24.42;;
25213;SDS011;13160;51.834;4.706;2023-06-22T04:31:11;40.42;;;25.67;;
25213;SDS011;13160;51.834;4.706;2023-06-22T04:33:39;36.50;;;24.13;;
25213;SDS011;13160;51.834;4.706;2023-06-22T04:36:08;36.78;;;24.40;;
25213;SDS011;13160;51.834;4.706;2023-06-22T04:38:39;37.10;;;24.63;;
25213;SDS011;13160;51.834;4.706;2023-06-22T04:41:08;34.15;;;22.30;;
25213;SDS011;13160;51.834;4.706;2023-06-22T04:43:40;31.90;;;22.80;;
25213;SDS011;13160;51.834;4.706;2023-06-22T04:46:10;33.88;;;23.80;;
25213;SDS011;13160;51.834;4.706;2023-06-22T04:48:38;35.47;;;23.58;;
25213;SDS011;13160;51.834;4.706;2023-06-22T04:51:07;34.85;;;23.35;;
25213;SDS011;13160;51.834;4.706;2023-06-22T04:53:36;40.22;;;23.88;;
25213;SDS011;13160;51.834;4.706;2023-06-22T04:56:08;33.90;;;24.52;;
25213;SDS011;13160;51.834;4.706;2023-06-22T04:58:36;30.80;;;23.17;;
25213;SDS011;13160;51.834;4.706;2023-06-22T05:01:04;33.80;;;22.65;;
25213;SDS011;13160;51.834;4.706;2023-06-22T05:03:36;38.00;;;22.67;;
25213;SDS011;13160;51.834;4.706;2023-06-22T05:06:08;34.63;;;23.02;;
25213;SDS011;13160;51.834;4.706;2023-06-22T05:08:36;38.25;;;23.38;;
25213;SDS011;13160;51.834;4.706;2023-06-22T05:11:05;35.72;;;23.98;;
25213;SDS011;13160;51.834;4.706;2023-06-22T05:13:33;37.75;;;24.90;;
25213;SDS011;13160;51.834;4.706;2023-06-22T05:16:01;35.35;;;23.75;;
25213;SDS011;13160;51.834;4.706;2023-06-22T05:18:30;34.30;;;23.85;;
25213;SDS011;13160;51.834;4.706;2023-06-22T05:21:00;36.33;;;24.75;;
25213;SDS011;13160;51.834;4.706;2023-06-22T05:23:29;33.22;;;24.00;;
25213;SDS011;13160;51.834;4.706;2023-06-22T05:25:58;35.63;;;26.00;;
25213;SDS011;13160;51.834;4.706;2023-06-22T05:28:26;36.75;;;24.35;;
25213;SDS011;13160;51.834;4.706;2023-06-22T05:30:54;34.58;;;24.08;;
25213;SDS011;13160;51.834;4.706;2023-06-22T05:33:23;33.83;;;23.05;;
25213;SDS011;13160;51.834;4.706;2023-06-22T05:35:51;31.65;;;22.70;;
25213;SDS011;13160;51.834;4.706;2023-06-22T05:38:21;33.67;;;22.40;;
25213;SDS011;13160;51.834;4.706;2023-06-22T05:40:49;35.72;;;23.45;;
25213;SDS011;13160;51.834;4.706;2023-06-22T05:43:18;31.13;;;23.10;;
25213;SDS011;13160;51.834;4.706;2023-06-22T05:45:46;30.48;;;22.85;;
25213;SDS011;13160;51.834;4.706;2023-06-22T05:48:15;33.63;;;22.35;;
25213;SDS011;13160;51.834;4.706;2023-06-22T05:50:43;30.52;;;21.13;;
25213;SDS011;13160;51.834;4.706;2023-06-22T05:53:11;27.40;;;20.50;;
25213;SDS011;13160;51.834;4.706;2023-06-22T05:55:42;25.17;;;20.15;;
25213;SDS011;13160;51.834;4.706;2023-06-22T05:58:10;30.02;;;21.77;;
25213;SDS011;13160;51.834;4.706;2023-06-22T06:00:39;27.48;;;19.45;;
25213;SDS011;13160;51.834;4.706;2023-06-22T06:03:09;25.27;;;18.95;;
25213;SDS011;13160;51.834;4.706;2023-06-22T06:05:41;26.73;;;19.42;;
25213;SDS011;13160;51.834;4.706;2023-06-22T06:08:09;25.80;;;18.85;;
25213;SDS011;13160;51.834;4.706;2023-06-22T06:10:38;25.40;;;16.88;;
25213;SDS011;13160;51.834;4.706;2023-06-22T06:13:11;23.83;;;18.00;;
25213;SDS011;13160;51.834;4.706;2023-06-22T06:15:40;26.85;;;18.30;;
25213;SDS011;13160;51.834;4.706;2023-06-22T06:18:08;23.98;;;17.65;;
25213;SDS011;13160;51.834;4.706;2023-06-22T06:20:38;24.17;;;16.58;;
25213;SDS011;13160;51.834;4.706;2023-06-22T06:23:06;23.98;;;17.23;;
25213;SDS011;13160;51.834;4.706;2023-06-22T06:25:34;25.65;;;17.13;;
25213;SDS011;13160;51.834;4.706;2023-06-22T06:28:03;22.63;;;17.10;;
25213;SDS011;13160;51.834;4.706;2023-06-22T06:30:33;22.30;;;17.05;;
25213;SDS011;13160;51.834;4.706;2023-06-22T06:33:03;29.27;;;17.70;;
25213;SDS011;13160;51.834;4.706;2023-06-22T06:35:35;24.42;;;15.90;;
25213;SDS011;13160;51.834;4.706;2023-06-22T06:38:04;20.88;;;15.20;;
25213;SDS011;13160;51.834;4.706;2023-06-22T06:40:32;22.63;;;16.52;;
25213;SDS011;13160;51.834;4.706;2023-06-22T06:43:01;21.80;;;15.57;;
25213;SDS011;13160;51.834;4.706;2023-06-22T06:45:29;20.15;;;14.95;;
25213;SDS011;13160;51.834;4.706;2023-06-22T06:48:00;28.15;;;15.98;;
25213;SDS011;13160;51.834;4.706;2023-06-22T06:50:29;22.30;;;14.90;;
25213;SDS011;13160;51.834;4.706;2023-06-22T06:52:58;36.10;;;16.05;;
25213;SDS011;13160;51.834;4.706;2023-06-22T06:55:27;20.88;;;14.73;;
25213;SDS011;13160;51.834;4.706;2023-06-22T06:57:56;17.50;;;14.38;;
25213;SDS011;13160;51.834;4.706;2023-06-22T07:00:26;20.33;;;14.30;;
25213;SDS011;13160;51.834;4.706;2023-06-22T07:02:55;17.70;;;12.65;;
25213;SDS011;13160;51.834;4.706;2023-06-22T07:05:24;15.00;;;11.50;;
25213;SDS011;13160;51.834;4.706;2023-06-22T07:07:53;19.75;;;12.40;;
25213;SDS011;13160;51.834;4.706;2023-06-22T07:10:21;16.10;;;10.75;;
25213;SDS011;13160;51.834;4.706;2023-06-22T07:12:49;13.50;;;10.18;;
25213;SDS011;13160;51.834;4.706;2023-06-22T07:15:18;14.93;;;10.68;;
25213;SDS011;13160;51.834;4.706;2023-06-22T07:17:46;14.85;;;11.27;;
25213;SDS011;13160;51.834;4.706;2023-06-22T07:20:18;14.32;;;10.98;;
25213;SDS011;13160;51.834;4.706;2023-06-22T07:22:48;14.90;;;10.50;;
25213;SDS011;13160;51.834;4.706;2023-06-22T07:25:16;12.98;;;9.65;;
25213;SDS011;13160;51.834;4.706;2023-06-22T07:27:45;15.07;;;8.52;;
25213;SDS011;13160;51.834;4.706;2023-06-22T07:30:24;13.90;;;9.75;;
25213;SDS011;13160;51.834;4.706;2023-06-22T07:32:54;14.32;;;9.32;;
25213;SDS011;13160;51.834;4.706;2023-06-22T07:35:22;10.13;;;7.10;;
25213;SDS011;13160;51.834;4.706;2023-06-22T07:37:52;44.33;;;11.82;;
25213;SDS011;13160;51.834;4.706;2023-06-22T07:40:21;12.68;;;7.78;;
25213;SDS011;13160;51.834;4.706;2023-06-22T07:42:49;58.72;;;13.85;;
25213;SDS011;13160;51.834;4.706;2023-06-22T07:45:19;65.30;;;14.07;;
25213;SDS011;13160;51.834;4.706;2023-06-22T07:47:48;35.38;;;11.02;;
25213;SDS011;13160;51.834;4.706;2023-06-22T07:50:17;34.72;;;12.02;;
25213;SDS011;13160;51.834;4.706;2023-06-22T07:52:46;10.52;;;8.23;;
25213;SDS011;13160;51.834;4.706;2023-06-22T07:55:16;16.58;;;9.52;;
25213;SDS011;13160;51.834;4.706;2023-06-22T07:57:46;15.65;;;8.77;;
25213;SDS011;13160;51.834;4.706;2023-06-22T08:00:18;16.70;;;9.20;;
25213;SDS011;13160;51.834;4.706;2023-06-22T08:02:47;13.70;;;9.57;;
25213;SDS011;13160;51.834;4.706;2023-06-22T08:05:15;14.80;;;10.25;;
25213;SDS011;13160;51.834;4.706;2023-06-22T08:08:01;12.25;;;10.35;;
25213;SDS011;13160;51.834;4.706;2023-06-22T08:10:31;14.35;;;11.60;;
25213;SDS011;13160;51.834;4.706;2023-06-22T08:12:59;13.25;;;10.63;;
25213;SDS011;13160;51.834;4.706;2023-06-22T08:15:28;12.40;;;10.88;;
25213;SDS011;13160;51.834;4.706;2023-06-22T08:17:56;15.43;;;12.27;;
25213;SDS011;13160;51.834;4.706;2023-06-22T08:20:26;13.75;;;11.60;;
25213;SDS011;13160;51.834;4.706;2023-06-22T08:22:55;17.75;;;12.75;;
25213;SDS011;13160;51.834;4.706;2023-06-22T08:25:24;17.45;;;12.40;;
25213;SDS011;13160;51.834;4.706;2023-06-22T08:27:54;16.35;;;13.93;;
25213;SDS011;13160;51.834;4.706;2023-06-22T08:30:23;17.58;;;14.43;;
25213;SDS011;13160;51.834;4.706;2023-06-22T08:32:51;16.13;;;14.13;;
25213;SDS011;13160;51.834;4.706;2023-06-22T08:35:20;17.88;;;15.00;;
25213;SDS011;13160;51.834;4.706;2023-06-22T08:37:49;18.45;;;14.18;;
25213;SDS011;13160;51.834;4.706;2023-06-22T08:40:20;20.35;;;15.13;;
25213;SDS011;13160;51.834;4.706;2023-06-22T08:42:49;17.77;;;15.00;;
25213;SDS011;13160;51.834;4.706;2023-06-22T08:45:19;20.50;;;15.45;;
25213;SDS011;13160;51.834;4.706;2023-06-22T08:47:47;18.85;;;15.18;;
25213;SDS011;13160;51.834;4.706;2023-06-22T08:50:16;20.42;;;16.88;;
25213;SDS011;13160;51.834;4.706;2023-06-22T08:52:44;16.83;;;14.10;;
25213;SDS011;13160;51.834;4.706;2023-06-22T08:55:12;20.92;;;15.13;;
25213;SDS011;13160;51.834;4.706;2023-06-22T08:57:41;18.60;;;14.52;;
25213;SDS011;13160;51.834;4.706;2023-06-22T09:00:10;15.20;;;13.35;;
25213;SDS011;13160;51.834;4.706;2023-06-22T09:02:44;15.38;;;13.77;;
25213;SDS011;13160;51.834;4.706;2023-06-22T09:05:13;13.98;;;12.05;;
25213;SDS011;13160;51.834;4.706;2023-06-22T09:07:42;14.05;;;12.40;;
25213;SDS011;13160;51.834;4.706;2023-06-22T09:10:11;16.50;;;11.85;;
25213;SDS011;13160;51.834;4.706;2023-06-22T09:12:39;23.33;;;12.55;;
25213;SDS011;13160;51.834;4.706;2023-06-22T09:15:09;17.23;;;13.68;;
25213;SDS011;13160;51.834;4.706;2023-06-22T09:17:45;16.42;;;11.52;;
25213;SDS011;13160;51.834;4.706;2023-06-22T09:20:14;17.25;;;12.77;;
25213;SDS011;13160;51.834;4.706;2023-06-22T09:22:43;14.30;;;12.60;;
25213;SDS011;13160;51.834;4.706;2023-06-22T09:25:11;17.02;;;12.13;;
25213;SDS011;13160;51.834;4.706;2023-06-22T09:27:39;20.17;;;12.98;;
25213;SDS011;13160;51.834;4.706;2023-06-22T09:30:08;19.02;;;13.02;;
25213;SDS011;13160;51.834;4.706;2023-06-22T09:32:37;16.52;;;12.80;;
25213;SDS011;13160;51.834;4.706;2023-06-22T09:35:07;17.80;;;13.57;;
25213;SDS011;13160;51.834;4.706;2023-06-22T09:37:39;17.40;;;13.73;;
25213;SDS011;13160;51.834;4.706;2023-06-22T09:40:08;17.95;;;14.25;;
25213;SDS011;13160;51.834;4.706;2023-06-22T09:42:39;17.70;;;14.27;;
25213;SDS011;13160;51.834;4.706;2023-06-22T09:45:09;19.02;;;15.52;;
25213;SDS011;13160;51.834;4.706;2023-06-22T09:47:38;20.58;;;16.33;;
25213;SDS011;13160;51.834;4.706;2023-06-22T09:50:08;42.08;;;17.88;;
25213;SDS011;13160;51.834;4.706;2023-06-22T09:52:37;31.33;;;17.48;;
25213;SDS011;13160;51.834;4.706;2023-06-22T09:55:13;36.67;;;18.33;;
25213;SDS011;13160;51.834;4.706;2023-06-22T09:57:43;22.48;;;18.10;;
25213;SDS011;13160;51.834;4.706;2023-06-22T10:00:12;24.17;;;18.88;;
25213;SDS011;13160;51.834;4.706;2023-06-22T10:02:42;23.88;;;18.83;;
25213;SDS011;13160;51.834;4.706;2023-06-22T10:05:12;19.65;;;15.93;;
25213;SDS011;13160;51.834;4.706;2023-06-22T10:07:41;19.23;;;14.23;;
25213;SDS011;13160;51.834;4.706;2023-06-22T10:10:11;27.60;;;14.75;;
25213;SDS011;13160;51.834;4.706;2023-06-22T10:12:44;18.83;;;14.10;;
25213;SDS011;13160;51.834;4.706;2023-06-22T10:15:14;18.88;;;12.25;;
25213;SDS011;13160;51.834;4.706;2023-06-22T10:17:43;18.77;;;14.43;;
25213;SDS011;13160;51.834;4.706;2023-06-22T10:20:13;22.63;;;14.48;;
25213;SDS011;13160;51.834;4.706;2023-06-22T10:22:43;19.13;;;14.98;;
25213;SDS011;13160;51.834;4.706;2023-06-22T10:25:12;16.50;;;14.05;;
25213;SDS011;13160;51.834;4.706;2023-06-22T10:27:41;15.77;;;14.15;;
25213;SDS011;13160;51.834;4.706;2023-06-22T10:30:11;18.23;;;14.60;;
25213;SDS011;13160;51.834;4.706;2023-06-22T10:32:40;18.23;;;14.18;;
25213;SDS011;13160;51.834;4.706;2023-06-22T10:35:10;15.10;;;13.25;;
25213;SDS011;13160;51.834;4.706;2023-06-22T10:37:41;16.85;;;13.50;;
25213;SDS011;13160;51.834;4.706;2023-06-22T10:40:11;15.80;;;14.20;;
25213;SDS011;13160;51.834;4.706;2023-06-22T10:42:41;16.80;;;13.88;;
25213;SDS011;13160;51.834;4.706;2023-06-22T10:45:10;15.98;;;14.30;;
25213;SDS011;13160;51.834;4.706;2023-06-22T10:47:40;16.10;;;13.38;;
25213;SDS011;13160;51.834;4.706;2023-06-22T10:50:09;16.48;;;13.27;;
25213;SDS011;13160;51.834;4.706;2023-06-22T10:52:38;16.85;;;13.77;;
25213;SDS011;13160;51.834;4.706;2023-06-22T10:55:09;15.80;;;13.02;;
25213;SDS011;13160;51.834;4.706;2023-06-22T10:57:38;20.15;;;14.73;;
25213;SDS011;13160;51.834;4.706;2023-06-22T11:00:10;16.25;;;12.52;;
25213;SDS011;13160;51.834;4.706;2023-06-22T11:02:40;15.63;;;12.65;;
25213;SDS011;13160;51.834;4.706;2023-06-22T11:05:09;13.88;;;12.15;;
25213;SDS011;13160;51.834;4.706;2023-06-22T11:07:38;14.60;;;12.98;;
25213;SDS011;13160;51.834;4.706;2023-06-22T11:10:12;14.98;;;13.15;;
25213;SDS011;13160;51.834;4.706;2023-06-22T11:12:41;16.70;;;13.15;;
25213;SDS011;13160;51.834;4.706;2023-06-22T11:15:10;18.30;;;14.10;;
25213;SDS011;13160;51.834;4.706;2023-06-22T11:17:38;17.02;;;15.27;;
25213;SDS011;13160;51.834;4.706;2023-06-22T11:20:07;17.60;;;15.05;;
25213;SDS011;13160;51.834;4.706;2023-06-22T11:22:37;16.98;;;14.85;;
25213;SDS011;13160;51.834;4.706;2023-06-22T11:25:06;21.17;;;16.02;;
25213;SDS011;13160;51.834;4.706;2023-06-22T11:27:37;19.80;;;16.58;;
25213;SDS011;13160;51.834;4.706;2023-06-22T11:30:06;24.83;;;18.52;;
25213;SDS011;13160;51.834;4.706;2023-06-22T11:32:35;22.80;;;18.52;;
25213;SDS011;13160;51.834;4.706;2023-06-22T11:35:04;22.17;;;19.85;;
25213;SDS011;13160;51.834;4.706;2023-06-22T11:37:34;23.10;;;20.80;;
25213;SDS011;13160;51.834;4.706;2023-06-22T11:40:02;22.63;;;20.33;;
25213;SDS011;13160;51.834;4.706;2023-06-22T11:42:36;24.25;;;21.65;;
25213;SDS011;13160;51.834;4.706;2023-06-22T11:45:05;24.17;;;20.70;;
25213;SDS011;13160;51.834;4.706;2023-06-22T11:47:34;24.42;;;19.58;;
25213;SDS011;13160;51.834;4.706;2023-06-22T11:50:04;22.80;;;20.15;;
25213;SDS011;13160;51.834;4.706;2023-06-22T11:52:34;22.23;;;19.70;;
25213;SDS011;13160;51.834;4.706;2023-06-22T11:55:03;21.38;;;19.25;;
25213;SDS011;13160;51.834;4.706;2023-06-22T11:57:33;23.60;;;18.00;;
25213;SDS011;13160;51.834;4.706;2023-06-22T12:00:05;20.30;;;18.10;;
25213;SDS011;13160;51.834;4.706;2023-06-22T12:02:44;19.85;;;17.50;;
25213;SDS011;13160;51.834;4.706;2023-06-22T12:05:12;19.73;;;17.70;;
25213;SDS011;13160;51.834;4.706;2023-06-22T12:07:41;19.50;;;16.83;;
25213;SDS011;13160;51.834;4.706;2023-06-22T12:10:10;23.90;;;17.23;;
25213;SDS011;13160;51.834;4.706;2023-06-22T12:12:40;18.40;;;15.80;;
25213;SDS011;13160;51.834;4.706;2023-06-22T12:15:09;19.02;;;16.40;;
25213;SDS011;13160;51.834;4.706;2023-06-22T12:17:38;19.48;;;15.30;;
25213;SDS011;13160;51.834;4.706;2023-06-22T12:20:07;19.60;;;14.70;;
25213;SDS011;13160;51.834;4.706;2023-06-22T12:22:37;17.10;;;14.23;;
25213;SDS011;13160;51.834;4.706;2023-06-22T12:25:06;16.48;;;13.48;;
25213;SDS011;13160;51.834;4.706;2023-06-22T12:27:35;16.08;;;13.35;;
25213;SDS011;13160;51.834;4.706;2023-06-22T12:30:06;16.83;;;13.90;;
25213;SDS011;13160;51.834;4.706;2023-06-22T12:32:36;21.10;;;14.65;;
25213;SDS011;13160;51.834;4.706;2023-06-22T12:35:08;21.63;;;14.30;;
25213;SDS011;13160;51.834;4.706;2023-06-22T12:37:40;18.70;;;14.57;;
25213;SDS011;13160;51.834;4.706;2023-06-22T12:40:09;16.80;;;14.13;;
25213;SDS011;13160;51.834;4.706;2023-06-22T12:42:39;22.88;;;14.63;;
25213;SDS011;13160;51.834;4.706;2023-06-22T12:45:10;18.73;;;14.43;;
25213;SDS011;13160;51.834;4.706;2023-06-22T12:47:39;18.60;;;14.18;;
25213;SDS011;13160;51.834;4.706;2023-06-22T12:50:07;19.40;;;15.43;;
25213;SDS011;13160;51.834;4.706;2023-06-22T12:52:36;18.08;;;15.40;;
25213;SDS011;13160;51.834;4.706;2023-06-22T12:55:07;18.23;;;16.27;;
25213;SDS011;13160;51.834;4.706;2023-06-22T12:57:36;28.20;;;19.08;;
25213;SDS011;13160;51.834;4.706;2023-06-22T13:00:05;28.83;;;23.38;;
25213;SDS011;13160;51.834;4.706;2023-06-22T13:02:37;36.50;;;28.77;;
25213;SDS011;13160;51.834;4.706;2023-06-22T13:05:06;41.28;;;31.23;;
25213;SDS011;13160;51.834;4.706;2023-06-22T13:07:35;38.17;;;32.00;;
25213;SDS011;13160;51.834;4.706;2023-06-22T13:10:04;40.03;;;34.42;;
25213;SDS011;13160;51.834;4.706;2023-06-22T13:12:34;41.53;;;33.50;;
25213;SDS011;13160;51.834;4.706;2023-06-22T13:15:03;38.85;;;32.50;;
25213;SDS011;13160;51.834;4.706;2023-06-22T13:17:33;48.00;;;32.70;;
25213;SDS011;13160;51.834;4.706;2023-06-22T13:20:03;48.83;;;34.65;;
25213;SDS011;13160;51.834;4.706;2023-06-22T13:22:33;42.13;;;34.70;;
25213;SDS011;13160;51.834;4.706;2023-06-22T13:25:07;45.78;;;36.75;;
25213;SDS011;13160;51.834;4.706;2023-06-22T13:27:39;46.20;;;36.33;;
25213;SDS011;13160;51.834;4.706;2023-06-22T13:30:08;44.38;;;35.35;;
25213;SDS011;13160;51.834;4.706;2023-06-22T13:32:40;46.63;;;34.95;;
25213;SDS011;13160;51.834;4.706;2023-06-22T13:35:11;37.45;;;30.90;;
25213;SDS011;13160;51.834;4.706;2023-06-22T13:37:40;32.63;;;24.30;;
25213;SDS011;13160;51.834;4.706;2023-06-22T13:40:08;28.65;;;21.63;;
25213;SDS011;13160;51.834;4.706;2023-06-22T13:42:37;23.33;;;19.17;;
25213;SDS011;13160;51.834;4.706;2023-06-22T13:45:07;24.48;;;19.92;;
25213;SDS011;13160;51.834;4.706;2023-06-22T13:47:36;26.20;;;20.17;;
25213;SDS011;13160;51.834;4.706;2023-06-22T13:50:05;23.67;;;19.27;;
25213;SDS011;13160;51.834;4.706;2023-06-22T13:52:36;30.25;;;21.58;;
25213;SDS011;13160;51.834;4.706;2023-06-22T13:55:05;24.00;;;19.55;;
25213;SDS011;13160;51.834;4.706;2023-06-22T13:57:34;28.83;;;19.85;;
25213;SDS011;13160;51.834;4.706;2023-06-22T14:00:04;27.27;;;19.80;;
25213;SDS011;13160;51.834;4.706;2023-06-22T14:02:34;25.95;;;21.08;;
25213;SDS011;13160;51.834;4.706;2023-06-22T14:05:03;22.65;;;20.17;;
25213;SDS011;13160;51.834;4.706;2023-06-22T14:07:32;21.77;;;17.88;;
25213;SDS011;13160;51.834;4.706;2023-06-22T14:10:02;25.45;;;18.42;;
25213;SDS011;13160;51.834;4.706;2023-06-22T14:12:32;22.88;;;18.10;;
25213;SDS011;13160;51.834;4.706;2023-06-22T14:15:01;26.45;;;19.13;;
25213;SDS011;13160;51.834;4.706;2023-06-22T14:17:29;23.90;;;19.60;;
25213;SDS011;13160;51.834;4.706;2023-06-22T14:19:58;26.77;;;20.73;;
25213;SDS011;13160;51.834;4.706;2023-06-22T14:22:26;31.60;;;21.13;;
25213;SDS011;13160;51.834;4.706;2023-06-22T14:24:56;29.70;;;23.02;;
25213;SDS011;13160;51.834;4.706;2023-06-22T14:27:26;32.50;;;23.30;;
25213;SDS011;13160;51.834;4.706;2023-06-22T14:29:54;31.58;;;25.50;;
25213;SDS011;13160;51.834;4.706;2023-06-22T14:32:23;33.65;;;24.83;;
25213;SDS011;13160;51.834;4.706;2023-06-22T14:34:52;32.03;;;23.75;;